sensor_id;sensor_type;location;lat;lon;timestamp;pressure;altitude;pressure_sealevel;temperature
34125;BMP280;20110;53.120;5.786;2023-03-01T00:02:09;103274.09;;;4.01
34125;BMP280;20110;53.120;5.786;2023-03-01T00:04:34;103161.59;;;3.35
34125;BMP280;20110;53.120;5.786;2023-03-01T00:07:01;103307.63;;;4.47
34125;BMP280;20110;53.120;5.786;2023-03-01T00:09:27;103267.97;;;4.34
34125;BMP280;20110;53.120;5.786;2023-03-01T00:11:53;103272.91;;;4.56
34125;BMP280;20110;53.120;5.786;2023-03-01T00:14:19;103305.34;;;4.73
34125;BMP280;20110;53.120;5.786;2023-03-01T00:16:45;103316.97;;;4.75
34125;BMP280;20110;53.120;5.786;2023-03-01T00:19:16;103252.66;;;4.29
34125;BMP280;20110;53.120;5.786;2023-03-01T00:21:42;103312.44;;;4.76
34125;BMP280;20110;53.120;5.786;2023-03-01T00:24:09;103273.84;;;4.46
34125;BMP280;20110;53.120;5.786;2023-03-01T00:26:36;103198.72;;;3.91
34125;BMP280;20110;53.120;5.786;2023-03-01T00:29:02;103302.59;;;4.56
34125;BMP280;20110;53.120;5.786;2023-03-01T00:31:31;103204.59;;;3.75
34125;BMP280;20110;53.120;5.786;2023-03-01T00:34:01;103283.28;;;4.16
34125;BMP280;20110;53.120;5.786;2023-03-01T00:36:32;103295.97;;;4.21
34125;BMP280;20110;53.120;5.786;2023-03-01T00:38:58;103249.91;;;3.83
34125;BMP280;20110;53.120;5.786;2023-03-01T00:41:24;103298.03;;;4.10
34125;BMP280;20110;53.120;5.786;2023-03-01T00:43:53;103298.38;;;4.12
34125;BMP280;20110;53.120;5.786;2023-03-01T00:46:22;103256.91;;;3.93
34125;BMP280;20110;53.120;5.786;2023-03-01T00:48:48;103286.91;;;4.26
34125;BMP280;20110;53.120;5.786;2023-03-01T00:51:25;103286.78;;;4.33
34125;BMP280;20110;53.120;5.786;2023-03-01T00:53:58;103267.22;;;4.07
34125;BMP280;20110;53.120;5.786;2023-03-01T00:56:24;103291.81;;;3.97
34125;BMP280;20110;53.120;5.786;2023-03-01T00:58:50;103271.38;;;3.47
34125;BMP280;20110;53.120;5.786;2023-03-01T01:01:24;103232.41;;;3.08
34125;BMP280;20110;53.120;5.786;2023-03-01T01:04:00;103299.69;;;3.32
34125;BMP280;20110;53.120;5.786;2023-03-01T01:06:30;103164.44;;;2.38
34125;BMP280;20110;53.120;5.786;2023-03-01T01:08:57;103288.56;;;3.18
34125;BMP280;20110;53.120;5.786;2023-03-01T01:11:26;103278.47;;;3.16
34125;BMP280;20110;53.120;5.786;2023-03-01T01:13:52;103264.88;;;3.25
34125;BMP280;20110;53.120;5.786;2023-03-01T01:16:21;103282.06;;;3.63
34125;BMP280;20110;53.120;5.786;2023-03-01T01:18:48;103297.06;;;3.66
34125;BMP280;20110;53.120;5.786;2023-03-01T01:21:18;103202.88;;;3.00
34125;BMP280;20110;53.120;5.786;2023-03-01T01:23:45;103284.81;;;3.56
34125;BMP280;20110;53.120;5.786;2023-03-01T01:26:22;103280.69;;;3.55
34125;BMP280;20110;53.120;5.786;2023-03-01T01:28:49;103240.75;;;3.64
34125;BMP280;20110;53.120;5.786;2023-03-01T01:31:16;103205.91;;;3.60
34125;BMP280;20110;53.120;5.786;2023-03-01T01:33:43;103200.97;;;3.65
34125;BMP280;20110;53.120;5.786;2023-03-01T01:36:09;103182.06;;;3.47
34125;BMP280;20110;53.120;5.786;2023-03-01T01:38:37;103274.94;;;3.94
34125;BMP280;20110;53.120;5.786;2023-03-01T01:41:07;103246.50;;;3.59
34125;BMP280;20110;53.120;5.786;2023-03-01T01:43:44;103247.81;;;3.43
34125;BMP280;20110;53.120;5.786;2023-03-01T01:46:32;103261.44;;;3.62
34125;BMP280;20110;53.120;5.786;2023-03-01T01:49:04;103262.09;;;3.42
34125;BMP280;20110;53.120;5.786;2023-03-01T01:51:42;103260.66;;;3.31
34125;BMP280;20110;53.120;5.786;2023-03-01T01:54:19;103203.00;;;2.86
34125;BMP280;20110;53.120;5.786;2023-03-01T01:56:56;103229.75;;;3.11
34125;BMP280;20110;53.120;5.786;2023-03-01T01:59:25;103215.84;;;3.15
34125;BMP280;20110;53.120;5.786;2023-03-01T02:01:52;103246.56;;;3.52
34125;BMP280;20110;53.120;5.786;2023-03-01T02:04:19;103238.13;;;3.67
34125;BMP280;20110;53.120;5.786;2023-03-01T02:06:55;103202.53;;;3.59
34125;BMP280;20110;53.120;5.786;2023-03-01T02:09:24;103227.91;;;4.00
34125;BMP280;20110;53.120;5.786;2023-03-01T02:11:51;103157.16;;;3.59
34125;BMP280;20110;53.120;5.786;2023-03-01T02:14:17;103194.69;;;3.86
34125;BMP280;20110;53.120;5.786;2023-03-01T02:16:43;103129.31;;;3.34
34125;BMP280;20110;53.120;5.786;2023-03-01T02:19:23;103193.47;;;3.64
34125;BMP280;20110;53.120;5.786;2023-03-01T02:22:37;103184.63;;;3.54
34125;BMP280;20110;53.120;5.786;2023-03-01T02:30:32;103204.88;;;3.81
34125;BMP280;20110;53.120;5.786;2023-03-01T02:33:02;103184.31;;;3.75
34125;BMP280;20110;53.120;5.786;2023-03-01T02:35:37;103197.31;;;3.86
34125;BMP280;20110;53.120;5.786;2023-03-01T02:38:07;103065.81;;;3.12
34125;BMP280;20110;53.120;5.786;2023-03-01T02:40:36;103149.75;;;3.77
34125;BMP280;20110;53.120;5.786;2023-03-01T02:43:08;103193.41;;;4.21
34125;BMP280;20110;53.120;5.786;2023-03-01T02:45:34;103097.19;;;3.77
34125;BMP280;20110;53.120;5.786;2023-03-01T02:48:00;103039.16;;;3.68
34125;BMP280;20110;53.120;5.786;2023-03-01T02:53:11;103172.22;;;4.52
34125;BMP280;20110;53.120;5.786;2023-03-01T02:55:39;103121.25;;;3.99
34125;BMP280;20110;53.120;5.786;2023-03-01T02:58:05;103120.69;;;3.88
34125;BMP280;20110;53.120;5.786;2023-03-01T03:00:41;103113.47;;;3.68
34125;BMP280;20110;53.120;5.786;2023-03-01T03:03:14;103168.94;;;4.01
34125;BMP280;20110;53.120;5.786;2023-03-01T03:05:41;103139.22;;;3.77
34125;BMP280;20110;53.120;5.786;2023-03-01T03:08:08;103086.50;;;3.37
34125;BMP280;20110;53.120;5.786;2023-03-01T03:10:38;103176.13;;;3.97
34125;BMP280;20110;53.120;5.786;2023-03-01T03:13:10;103126.59;;;3.68
34125;BMP280;20110;53.120;5.786;2023-03-01T03:15:37;103179.28;;;4.12
34125;BMP280;20110;53.120;5.786;2023-03-01T03:18:09;103179.63;;;4.14
34125;BMP280;20110;53.120;5.786;2023-03-01T03:20:37;103178.81;;;4.17
34125;BMP280;20110;53.120;5.786;2023-03-01T03:23:04;103177.28;;;4.19
34125;BMP280;20110;53.120;5.786;2023-03-01T03:25:30;103063.28;;;3.59
34125;BMP280;20110;53.120;5.786;2023-03-01T03:27:57;103167.34;;;4.50
34125;BMP280;20110;53.120;5.786;2023-03-01T03:30:29;103138.31;;;4.34
34125;BMP280;20110;53.120;5.786;2023-03-01T03:32:58;103136.16;;;4.29
34125;BMP280;20110;53.120;5.786;2023-03-01T03:35:46;103158.16;;;4.38
34125;BMP280;20110;53.120;5.786;2023-03-01T03:38:15;103159.81;;;4.29
34125;BMP280;20110;53.120;5.786;2023-03-01T03:40:54;103151.53;;;4.07
34125;BMP280;20110;53.120;5.786;2023-03-01T03:43:26;103152.50;;;3.93
34125;BMP280;20110;53.120;5.786;2023-03-01T03:45:52;103152.72;;;3.79
34125;BMP280;20110;53.120;5.786;2023-03-01T03:48:20;103100.97;;;3.22
34125;BMP280;20110;53.120;5.786;2023-03-01T03:50:54;103154.69;;;3.44
34125;BMP280;20110;53.120;5.786;2023-03-01T03:53:22;103158.91;;;3.38
34125;BMP280;20110;53.120;5.786;2023-03-01T03:55:49;103154.78;;;3.37
34125;BMP280;20110;53.120;5.786;2023-03-01T03:58:16;103113.00;;;3.20
34125;BMP280;20110;53.120;5.786;2023-03-01T04:00:47;103016.53;;;2.66
34125;BMP280;20110;53.120;5.786;2023-03-01T04:03:15;103139.41;;;3.66
34125;BMP280;20110;53.120;5.786;2023-03-01T04:05:42;103147.06;;;3.81
34125;BMP280;20110;53.120;5.786;2023-03-01T04:08:08;103094.16;;;3.52
34125;BMP280;20110;53.120;5.786;2023-03-01T04:10:41;103156.16;;;3.76
34125;BMP280;20110;53.120;5.786;2023-03-01T04:13:13;103125.94;;;3.34
34125;BMP280;20110;53.120;5.786;2023-03-01T04:15:39;103164.50;;;3.40
34125;BMP280;20110;53.120;5.786;2023-03-01T04:18:06;103166.44;;;3.36
34125;BMP280;20110;53.120;5.786;2023-03-01T04:20:35;103071.47;;;2.80
34125;BMP280;20110;53.120;5.786;2023-03-01T04:23:12;103161.44;;;3.46
34125;BMP280;20110;53.120;5.786;2023-03-01T04:25:48;103162.25;;;3.42
34125;BMP280;20110;53.120;5.786;2023-03-01T04:28:38;103139.44;;;3.36
34125;BMP280;20110;53.120;5.786;2023-03-01T04:31:13;103136.25;;;3.21
34125;BMP280;20110;53.120;5.786;2023-03-01T04:33:42;103069.31;;;2.72
34125;BMP280;20110;53.120;5.786;2023-03-01T04:36:10;103134.22;;;3.02
34125;BMP280;20110;53.120;5.786;2023-03-01T04:38:40;103118.88;;;2.97
34125;BMP280;20110;53.120;5.786;2023-03-01T04:41:09;103136.50;;;2.96
34125;BMP280;20110;53.120;5.786;2023-03-01T04:43:36;103131.72;;;2.91
34125;BMP280;20110;53.120;5.786;2023-03-01T04:46:10;103083.84;;;2.76
34125;BMP280;20110;53.120;5.786;2023-03-01T04:48:38;103119.13;;;3.09
34125;BMP280;20110;53.120;5.786;2023-03-01T04:51:06;103152.34;;;3.23
34125;BMP280;20110;53.120;5.786;2023-03-01T04:53:34;103152.50;;;3.09
34125;BMP280;20110;53.120;5.786;2023-03-01T04:56:02;103094.88;;;2.64
34125;BMP280;20110;53.120;5.786;2023-03-01T04:58:28;103127.97;;;2.92
34125;BMP280;20110;53.120;5.786;2023-03-01T05:00:55;103137.38;;;2.90
34125;BMP280;20110;53.120;5.786;2023-03-01T05:03:21;103105.13;;;2.52
34125;BMP280;20110;53.120;5.786;2023-03-01T05:05:50;103127.59;;;2.56
34125;BMP280;20110;53.120;5.786;2023-03-01T05:08:16;103065.13;;;1.99
34125;BMP280;20110;53.120;5.786;2023-03-01T05:10:52;103143.41;;;2.42
34125;BMP280;20110;53.120;5.786;2023-03-01T05:13:21;103140.78;;;2.45
34125;BMP280;20110;53.120;5.786;2023-03-01T05:16:00;103110.47;;;2.41
34125;BMP280;20110;53.120;5.786;2023-03-01T05:18:28;103125.28;;;2.58
34125;BMP280;20110;53.120;5.786;2023-03-01T05:21:01;103082.06;;;2.32
34125;BMP280;20110;53.120;5.786;2023-03-01T05:23:31;103121.44;;;2.70
34125;BMP280;20110;53.120;5.786;2023-03-01T05:26:01;103051.34;;;2.33
34125;BMP280;20110;53.120;5.786;2023-03-01T05:28:30;103118.53;;;2.95
34125;BMP280;20110;53.120;5.786;2023-03-01T05:30:57;103102.22;;;2.80
34125;BMP280;20110;53.120;5.786;2023-03-01T05:33:24;103022.72;;;2.11
34125;BMP280;20110;53.120;5.786;2023-03-01T05:35:52;103103.59;;;2.54
34125;BMP280;20110;53.120;5.786;2023-03-01T05:38:20;103092.94;;;2.34
34125;BMP280;20110;53.120;5.786;2023-03-01T05:40:48;103050.97;;;1.89
34125;BMP280;20110;53.120;5.786;2023-03-01T05:43:16;103090.88;;;2.15
34125;BMP280;20110;53.120;5.786;2023-03-01T05:45:43;103038.34;;;1.77
34125;BMP280;20110;53.120;5.786;2023-03-01T05:48:11;103088.69;;;1.99
34125;BMP280;20110;53.120;5.786;2023-03-01T05:50:43;103070.09;;;1.86
34125;BMP280;20110;53.120;5.786;2023-03-01T05:53:18;103079.31;;;2.05
34125;BMP280;20110;53.120;5.786;2023-03-01T05:55:45;103063.72;;;1.91
34125;BMP280;20110;53.120;5.786;2023-03-01T05:58:18;103034.00;;;1.60
34125;BMP280;20110;53.120;5.786;2023-03-01T06:00:46;103040.22;;;1.80
34125;BMP280;20110;53.120;5.786;2023-03-01T06:03:15;103067.66;;;2.10
34125;BMP280;20110;53.120;5.786;2023-03-01T06:05:42;103092.66;;;2.22
34125;BMP280;20110;53.120;5.786;2023-03-01T06:08:10;103084.69;;;2.36
34125;BMP280;20110;53.120;5.786;2023-03-01T06:10:36;103075.22;;;2.42
34125;BMP280;20110;53.120;5.786;2023-03-01T06:13:03;103070.09;;;2.35
34125;BMP280;20110;53.120;5.786;2023-03-01T06:15:29;103004.72;;;1.72
34125;BMP280;20110;53.120;5.786;2023-03-01T06:17:55;103057.34;;;1.92
34125;BMP280;20110;53.120;5.786;2023-03-01T06:20:27;103069.72;;;1.92
34125;BMP280;20110;53.120;5.786;2023-03-01T06:22:53;103078.69;;;1.91
34125;BMP280;20110;53.120;5.786;2023-03-01T06:25:26;102915.16;;;0.81
34125;BMP280;20110;53.120;5.786;2023-03-01T06:27:52;103070.44;;;1.92
34125;BMP280;20110;53.120;5.786;2023-03-01T06:30:21;103051.75;;;1.86
34125;BMP280;20110;53.120;5.786;2023-03-01T06:32:47;103084.53;;;2.12
34125;BMP280;20110;53.120;5.786;2023-03-01T06:35:15;103047.63;;;1.89
34125;BMP280;20110;53.120;5.786;2023-03-01T06:37:44;103085.94;;;2.17
34125;BMP280;20110;53.120;5.786;2023-03-01T06:40:11;103027.50;;;1.75
34125;BMP280;20110;53.120;5.786;2023-03-01T06:42:41;103031.19;;;1.85
34125;BMP280;20110;53.120;5.786;2023-03-01T06:45:09;103077.97;;;2.35
34125;BMP280;20110;53.120;5.786;2023-03-01T06:47:35;103086.66;;;2.62
34125;BMP280;20110;53.120;5.786;2023-03-01T06:50:02;103043.38;;;2.43
34125;BMP280;20110;53.120;5.786;2023-03-01T06:52:29;103049.03;;;2.38
34125;BMP280;20110;53.120;5.786;2023-03-01T06:54:55;103065.94;;;2.37
34125;BMP280;20110;53.120;5.786;2023-03-01T06:57:20;103054.56;;;2.13
34125;BMP280;20110;53.120;5.786;2023-03-01T06:59:47;103095.41;;;2.48
34125;BMP280;20110;53.120;5.786;2023-03-01T07:02:14;103034.72;;;2.12
34125;BMP280;20110;53.120;5.786;2023-03-01T07:04:41;103042.81;;;2.25
34125;BMP280;20110;53.120;5.786;2023-03-01T07:07:07;103104.91;;;2.73
34125;BMP280;20110;53.120;5.786;2023-03-01T07:09:34;103100.69;;;2.82
34125;BMP280;20110;53.120;5.786;2023-03-01T07:12:00;103079.34;;;2.80
34125;BMP280;20110;53.120;5.786;2023-03-01T07:14:27;103108.66;;;3.06
34125;BMP280;20110;53.120;5.786;2023-03-01T07:16:54;103092.53;;;3.07
34125;BMP280;20110;53.120;5.786;2023-03-01T07:19:21;103104.50;;;3.08
34125;BMP280;20110;53.120;5.786;2023-03-01T07:21:47;103065.28;;;2.94
34125;BMP280;20110;53.120;5.786;2023-03-01T07:24:13;103023.88;;;2.78
34125;BMP280;20110;53.120;5.786;2023-03-01T07:26:38;103069.47;;;3.22
34125;BMP280;20110;53.120;5.786;2023-03-01T07:29:07;103112.88;;;3.57
34125;BMP280;20110;53.120;5.786;2023-03-01T07:31:34;103075.16;;;3.44
34125;BMP280;20110;53.120;5.786;2023-03-01T07:34:00;103104.38;;;3.73
34125;BMP280;20110;53.120;5.786;2023-03-01T07:36:26;102988.31;;;3.04
34125;BMP280;20110;53.120;5.786;2023-03-01T07:38:52;103091.13;;;3.80
34125;BMP280;20110;53.120;5.786;2023-03-01T07:41:18;103082.44;;;3.83
34125;BMP280;20110;53.120;5.786;2023-03-01T07:43:44;103058.16;;;3.75
34125;BMP280;20110;53.120;5.786;2023-03-01T07:46:10;103055.06;;;3.81
34125;BMP280;20110;53.120;5.786;2023-03-01T07:48:36;103133.81;;;4.34
34125;BMP280;20110;53.120;5.786;2023-03-01T07:51:05;103059.34;;;3.94
34125;BMP280;20110;53.120;5.786;2023-03-01T07:53:31;103120.38;;;4.49
34125;BMP280;20110;53.120;5.786;2023-03-01T07:56:12;103126.47;;;4.65
34125;BMP280;20110;53.120;5.786;2023-03-01T07:58:41;103120.00;;;4.70
34125;BMP280;20110;53.120;5.786;2023-03-01T08:01:11;103095.34;;;4.60
34125;BMP280;20110;53.120;5.786;2023-03-01T08:03:37;103031.06;;;4.22
34125;BMP280;20110;53.120;5.786;2023-03-01T08:06:06;103125.16;;;4.93
34125;BMP280;20110;53.120;5.786;2023-03-01T08:08:33;103110.53;;;4.92
34125;BMP280;20110;53.120;5.786;2023-03-01T08:11:01;103128.88;;;5.16
34125;BMP280;20110;53.120;5.786;2023-03-01T08:13:29;103123.19;;;5.17
34125;BMP280;20110;53.120;5.786;2023-03-01T08:16:12;103136.13;;;5.28
34125;BMP280;20110;53.120;5.786;2023-03-01T08:18:41;103123.69;;;5.28
34125;BMP280;20110;53.120;5.786;2023-03-01T08:21:12;103146.38;;;5.42
34125;BMP280;20110;53.120;5.786;2023-03-01T08:23:38;103132.28;;;5.49
34125;BMP280;20110;53.120;5.786;2023-03-01T08:26:20;103116.03;;;5.34
34125;BMP280;20110;53.120;5.786;2023-03-01T08:28:47;103092.13;;;5.25
34125;BMP280;20110;53.120;5.786;2023-03-01T08:31:23;103085.59;;;5.33
34125;BMP280;20110;53.120;5.786;2023-03-01T08:33:53;103077.56;;;5.37
34125;BMP280;20110;53.120;5.786;2023-03-01T08:36:35;103040.59;;;5.24
34125;BMP280;20110;53.120;5.786;2023-03-01T08:39:03;103083.03;;;5.62
34125;BMP280;20110;53.120;5.786;2023-03-01T08:41:29;103109.53;;;5.87
34125;BMP280;20110;53.120;5.786;2023-03-01T08:43:55;103066.63;;;5.71
34125;BMP280;20110;53.120;5.786;2023-03-01T08:46:30;103105.03;;;6.01
34125;BMP280;20110;53.120;5.786;2023-03-01T08:48:57;103103.56;;;5.99
34125;BMP280;20110;53.120;5.786;2023-03-01T08:51:25;103062.00;;;5.75
34125;BMP280;20110;53.120;5.786;2023-03-01T08:53:51;103118.19;;;6.17
34125;BMP280;20110;53.120;5.786;2023-03-01T08:56:18;103087.13;;;6.08
34125;BMP280;20110;53.120;5.786;2023-03-01T08:58:46;103112.03;;;6.36
34125;BMP280;20110;53.120;5.786;2023-03-01T09:01:17;103101.38;;;6.40
34125;BMP280;20110;53.120;5.786;2023-03-01T09:03:44;103109.94;;;6.56
34125;BMP280;20110;53.120;5.786;2023-03-01T09:06:12;103068.72;;;6.33
34125;BMP280;20110;53.120;5.786;2023-03-01T09:08:44;103094.97;;;6.66
34125;BMP280;20110;53.120;5.786;2023-03-01T09:11:13;103109.28;;;6.81
34125;BMP280;20110;53.120;5.786;2023-03-01T09:13:40;103108.22;;;6.91
34125;BMP280;20110;53.120;5.786;2023-03-01T09:16:08;103096.91;;;6.91
34125;BMP280;20110;53.120;5.786;2023-03-01T09:18:35;103068.38;;;6.86
34125;BMP280;20110;53.120;5.786;2023-03-01T09:21:14;103097.19;;;7.18
34125;BMP280;20110;53.120;5.786;2023-03-01T09:23:46;103102.78;;;7.33
34125;BMP280;20110;53.120;5.786;2023-03-01T09:26:16;103107.41;;;7.42
34125;BMP280;20110;53.120;5.786;2023-03-01T09:28:46;103077.50;;;7.32
34125;BMP280;20110;53.120;5.786;2023-03-01T09:31:13;103096.56;;;7.61
34125;BMP280;20110;53.120;5.786;2023-03-01T09:33:41;103031.66;;;7.26
34125;BMP280;20110;53.120;5.786;2023-03-01T09:36:12;103103.50;;;7.81
34125;BMP280;20110;53.120;5.786;2023-03-01T09:38:38;103094.03;;;7.92
34125;BMP280;20110;53.120;5.786;2023-03-01T09:41:38;103106.50;;;8.14
34125;BMP280;20110;53.120;5.786;2023-03-01T09:44:32;103077.63;;;8.59
34125;BMP280;20110;53.120;5.786;2023-03-01T09:47:02;103109.63;;;9.51
34125;BMP280;20110;53.120;5.786;2023-03-01T09:49:33;103105.69;;;10.16
34125;BMP280;20110;53.120;5.786;2023-03-01T09:52:29;103075.47;;;11.18
34125;BMP280;20110;53.120;5.786;2023-03-01T09:54:56;103062.34;;;12.02
34125;BMP280;20110;53.120;5.786;2023-03-01T09:57:35;103109.81;;;12.94
34125;BMP280;20110;53.120;5.786;2023-03-01T10:03:07;103067.75;;;13.61
34125;BMP280;20110;53.120;5.786;2023-03-01T10:08:42;103106.69;;;14.64
34125;BMP280;20110;53.120;5.786;2023-03-01T10:11:28;103109.19;;;15.01
34125;BMP280;20110;53.120;5.786;2023-03-01T10:14:03;103104.13;;;15.14
34125;BMP280;20110;53.120;5.786;2023-03-01T10:17:03;103119.94;;;15.46
34125;BMP280;20110;53.120;5.786;2023-03-01T10:22:27;103110.88;;;15.93
34125;BMP280;20110;53.120;5.786;2023-03-01T10:24:58;103107.88;;;16.13
34125;BMP280;20110;53.120;5.786;2023-03-01T10:27:53;103102.88;;;16.45
34125;BMP280;20110;53.120;5.786;2023-03-01T10:30:40;103068.06;;;16.70
34125;BMP280;20110;53.120;5.786;2023-03-01T10:33:37;103076.31;;;17.13
34125;BMP280;20110;53.120;5.786;2023-03-01T10:36:05;103077.97;;;17.46
34125;BMP280;20110;53.120;5.786;2023-03-01T10:41:14;103072.66;;;17.83
34125;BMP280;20110;53.120;5.786;2023-03-01T10:43:54;103053.00;;;17.94
34125;BMP280;20110;53.120;5.786;2023-03-01T10:46:34;103067.81;;;18.19
34125;BMP280;20110;53.120;5.786;2023-03-01T10:49:22;103071.63;;;18.42
34125;BMP280;20110;53.120;5.786;2023-03-01T10:51:51;103048.81;;;18.49
34125;BMP280;20110;53.120;5.786;2023-03-01T10:54:35;103068.03;;;18.85
34125;BMP280;20110;53.120;5.786;2023-03-01T10:57:04;103045.56;;;18.82
34125;BMP280;20110;53.120;5.786;2023-03-01T10:59:37;103067.13;;;19.09
34125;BMP280;20110;53.120;5.786;2023-03-01T11:04:35;103026.31;;;19.18
34125;BMP280;20110;53.120;5.786;2023-03-01T11:07:02;103034.63;;;19.33
34125;BMP280;20110;53.120;5.786;2023-03-01T11:09:33;103051.75;;;19.83
34125;BMP280;20110;53.120;5.786;2023-03-01T11:12:12;103054.31;;;19.88
34125;BMP280;20110;53.120;5.786;2023-03-01T11:14:51;103050.09;;;19.80
34125;BMP280;20110;53.120;5.786;2023-03-01T11:17:30;103056.09;;;19.73
34125;BMP280;20110;53.120;5.786;2023-03-01T11:22:53;103065.78;;;19.68
34125;BMP280;20110;53.120;5.786;2023-03-01T11:25:31;103032.41;;;19.58
34125;BMP280;20110;53.120;5.786;2023-03-01T11:28:02;103066.50;;;20.02
34125;BMP280;20110;53.120;5.786;2023-03-01T11:36:29;103046.19;;;20.01
34125;BMP280;20110;53.120;5.786;2023-03-01T11:39:03;103060.59;;;20.25
34125;BMP280;20110;53.120;5.786;2023-03-01T11:41:34;103059.69;;;20.43
34125;BMP280;20110;53.120;5.786;2023-03-01T11:44:14;103054.41;;;20.58
34125;BMP280;20110;53.120;5.786;2023-03-01T11:47:20;103039.19;;;20.68
34125;BMP280;20110;53.120;5.786;2023-03-01T11:53:32;103042.31;;;21.08
34125;BMP280;20110;53.120;5.786;2023-03-01T11:56:24;103022.03;;;20.94
34125;BMP280;20110;53.120;5.786;2023-03-01T11:59:24;103033.78;;;20.97
34125;BMP280;20110;53.120;5.786;2023-03-01T12:02:27;102977.09;;;20.68
34125;BMP280;20110;53.120;5.786;2023-03-01T12:05:36;103017.84;;;21.14
34125;BMP280;20110;53.120;5.786;2023-03-01T12:08:24;103009.16;;;21.15
34125;BMP280;20110;53.120;5.786;2023-03-01T12:14:13;103005.50;;;21.41
34125;BMP280;20110;53.120;5.786;2023-03-01T12:23:54;103006.94;;;21.42
34125;BMP280;20110;53.120;5.786;2023-03-01T12:26:42;102997.88;;;21.24
34125;BMP280;20110;53.120;5.786;2023-03-01T12:29:34;102957.63;;;20.98
34125;BMP280;20110;53.120;5.786;2023-03-01T12:32:53;102914.50;;;20.85
34125;BMP280;20110;53.120;5.786;2023-03-01T12:35:58;102983.50;;;21.45
34125;BMP280;20110;53.120;5.786;2023-03-01T12:44:28;102977.31;;;21.14
34125;BMP280;20110;53.120;5.786;2023-03-01T12:49:44;102969.63;;;20.89
34125;BMP280;20110;53.120;5.786;2023-03-01T12:52:29;102970.38;;;20.98
34125;BMP280;20110;53.120;5.786;2023-03-01T12:55:06;102920.91;;;20.67
34125;BMP280;20110;53.120;5.786;2023-03-01T12:58:13;102968.22;;;21.04
34125;BMP280;20110;53.120;5.786;2023-03-01T13:07:09;102952.81;;;21.19
34125;BMP280;20110;53.120;5.786;2023-03-01T13:26:15;102924.06;;;20.93
34125;BMP280;20110;53.120;5.786;2023-03-01T13:28:48;102930.44;;;21.11
34125;BMP280;20110;53.120;5.786;2023-03-01T13:33:44;102922.13;;;21.02
34125;BMP280;20110;53.120;5.786;2023-03-01T13:36:45;102923.75;;;20.97
34125;BMP280;20110;53.120;5.786;2023-03-01T13:39:28;102921.16;;;20.84
34125;BMP280;20110;53.120;5.786;2023-03-01T13:41:58;102862.16;;;20.24
34125;BMP280;20110;53.120;5.786;2023-03-01T13:44:37;102897.81;;;20.22
34125;BMP280;20110;53.120;5.786;2023-03-01T13:47:17;102914.44;;;20.13
34125;BMP280;20110;53.120;5.786;2023-03-01T13:49:47;102915.91;;;19.93
34125;BMP280;20110;53.120;5.786;2023-03-01T13:52:40;102909.00;;;19.64
34125;BMP280;20110;53.120;5.786;2023-03-01T13:57:42;102860.13;;;18.79
34125;BMP280;20110;53.120;5.786;2023-03-01T14:00:38;102886.50;;;18.67
34125;BMP280;20110;53.120;5.786;2023-03-01T14:03:14;102822.19;;;17.98
34125;BMP280;20110;53.120;5.786;2023-03-01T14:06:05;102877.56;;;18.20
34125;BMP280;20110;53.120;5.786;2023-03-01T14:08:32;102868.75;;;18.06
34125;BMP280;20110;53.120;5.786;2023-03-01T14:11:40;102869.28;;;17.86
34125;BMP280;20110;53.120;5.786;2023-03-01T14:14:41;102879.88;;;17.65
34125;BMP280;20110;53.120;5.786;2023-03-01T14:17:34;102880.38;;;17.45
34125;BMP280;20110;53.120;5.786;2023-03-01T14:20:18;102881.09;;;17.26
34125;BMP280;20110;53.120;5.786;2023-03-01T14:22:46;102844.19;;;16.89
34125;BMP280;20110;53.120;5.786;2023-03-01T14:25:27;102866.78;;;16.75
34125;BMP280;20110;53.120;5.786;2023-03-01T14:30:55;102871.34;;;16.56
34125;BMP280;20110;53.120;5.786;2023-03-01T14:33:35;102867.88;;;16.37
34125;BMP280;20110;53.120;5.786;2023-03-01T14:36:08;102849.28;;;16.14
34125;BMP280;20110;53.120;5.786;2023-03-01T14:38:45;102861.31;;;16.02
34125;BMP280;20110;53.120;5.786;2023-03-01T14:41:24;102843.66;;;15.83
34125;BMP280;20110;53.120;5.786;2023-03-01T14:43:57;102844.00;;;15.68
34125;BMP280;20110;53.120;5.786;2023-03-01T14:46:32;102845.03;;;15.59
34125;BMP280;20110;53.120;5.786;2023-03-01T14:49:04;102719.13;;;14.60
34125;BMP280;20110;53.120;5.786;2023-03-01T14:51:39;102836.13;;;15.34
34125;BMP280;20110;53.120;5.786;2023-03-01T14:54:25;102842.72;;;15.33
34125;BMP280;20110;53.120;5.786;2023-03-01T14:56:57;102839.56;;;15.29
34125;BMP280;20110;53.120;5.786;2023-03-01T14:59:24;102832.78;;;15.23
34125;BMP280;20110;53.120;5.786;2023-03-01T15:01:55;102784.69;;;14.89
34125;BMP280;20110;53.120;5.786;2023-03-01T15:04:22;102816.25;;;15.13
34125;BMP280;20110;53.120;5.786;2023-03-01T15:06:53;102816.03;;;15.06
34125;BMP280;20110;53.120;5.786;2023-03-01T15:09:20;102758.28;;;14.69
34125;BMP280;20110;53.120;5.786;2023-03-01T15:11:46;102816.03;;;15.06
34125;BMP280;20110;53.120;5.786;2023-03-01T15:14:44;102812.88;;;15.01
34125;BMP280;20110;53.120;5.786;2023-03-01T15:17:34;102772.31;;;14.75
34125;BMP280;20110;53.120;5.786;2023-03-01T15:20:05;102775.00;;;14.75
34125;BMP280;20110;53.120;5.786;2023-03-01T15:22:31;102780.34;;;14.75
34125;BMP280;20110;53.120;5.786;2023-03-01T15:24:57;102783.53;;;14.68
34125;BMP280;20110;53.120;5.786;2023-03-01T15:27:26;102752.22;;;14.35
34125;BMP280;20110;53.120;5.786;2023-03-01T15:29:58;102766.81;;;14.40
34125;BMP280;20110;53.120;5.786;2023-03-01T15:32:36;102798.38;;;14.63
34125;BMP280;20110;53.120;5.786;2023-03-01T15:35:44;102786.97;;;14.57
34125;BMP280;20110;53.120;5.786;2023-03-01T15:41:32;102775.09;;;14.36
34125;BMP280;20110;53.120;5.786;2023-03-01T15:44:00;102758.31;;;14.19
34125;BMP280;20110;53.120;5.786;2023-03-01T15:46:39;102781.38;;;14.33
34125;BMP280;20110;53.120;5.786;2023-03-01T15:49:41;102750.28;;;13.97
34125;BMP280;20110;53.120;5.786;2023-03-01T15:52:27;102763.63;;;14.02
34125;BMP280;20110;53.120;5.786;2023-03-01T15:55:03;102758.56;;;13.93
34125;BMP280;20110;53.120;5.786;2023-03-01T15:57:29;102704.31;;;13.48
34125;BMP280;20110;53.120;5.786;2023-03-01T15:59:55;102772.38;;;13.86
34125;BMP280;20110;53.120;5.786;2023-03-01T16:02:23;102781.59;;;13.85
34125;BMP280;20110;53.120;5.786;2023-03-01T16:04:50;102742.72;;;13.56